Carbondale, Texas
Current Conditions -  °F | °C
As of 9:53 AM on Monday 24 Nov 2014 (Local Time) from KTXK Reporting Station
Clear Clear  
Wind Chill: 53°   Ceiling: Unl
Heat Index: 53°   Visibility: 10mi
Dew Point: 32°   Wind: 12mph
Humidity: 45%   Direction: 320°NW
Pressure: 30.01"   Gusts: NA
Location:  33.3608°N, 94.4651°W
Report Text: KTXK 241553Z 32010KT 10SM CLR 12/00 A3001 RMK AO2 SLP159 T01170000
Loading
Personal Weather Stations






























Interactive Weather Map New forecast layout! Learn more

10-Day Weather Forecast

Advertisements
Track Severe Weather on mobile